createdAt,value
2019-03-30T00:03:56.490Z,15.67
2019-03-30T00:08:03.875Z,18.93
2019-03-30T00:12:09.606Z,16.30
2019-03-30T00:16:15.297Z,20.60
2019-03-30T00:20:32.164Z,15.97
2019-03-30T00:24:38.026Z,22.17
2019-03-30T00:28:43.760Z,20.27
2019-03-30T00:33:08.259Z,18.30
2019-03-30T00:37:14.085Z,23.93
2019-03-30T00:41:19.824Z,21.40
2019-03-30T00:45:37.529Z,17.40
2019-03-30T00:49:52.118Z,17.80
2019-03-30T00:58:15.144Z,20.67
2019-03-30T01:02:22.997Z,16.67
2019-03-30T01:06:28.751Z,15.30
2019-03-30T01:10:34.514Z,15.80
2019-03-30T01:14:52.929Z,16.90
2019-03-30T01:18:58.709Z,16.97
2019-03-30T01:23:18.147Z,18.37
2019-03-30T01:27:23.835Z,19.03
2019-03-30T01:31:34.244Z,16.83
2019-03-30T01:35:41.953Z,18.20
2019-03-30T01:39:47.737Z,17.57
2019-03-30T01:43:54.365Z,20.07
2019-03-30T01:48:11.992Z,15.93
2019-03-30T01:52:18.443Z,14.90
2019-03-30T02:01:01.307Z,17.73
2019-03-30T02:05:09.451Z,16.47
2019-03-30T02:09:15.212Z,17.90
2019-03-30T02:13:21.145Z,15.97
2019-03-30T02:17:50.869Z,16.73
2019-03-30T02:22:10.837Z,17.07
2019-03-30T02:31:00.002Z,18.47
2019-03-30T02:35:08.859Z,18.57
2019-03-30T02:39:14.652Z,16.57
2019-03-30T02:43:21.922Z,16.67
2019-03-30T02:47:27.657Z,15.33
2019-03-30T02:51:52.477Z,16.97
2019-03-30T02:56:00.377Z,17.53
2019-03-30T03:00:25.835Z,19.00
2019-03-30T03:04:31.548Z,16.63
2019-03-30T03:08:37.329Z,16.10
2019-03-30T03:12:43.551Z,16.73
2019-03-30T03:16:49.352Z,18.80
2019-03-30T03:21:07.225Z,18.27
2019-03-30T03:25:13.830Z,20.00
2019-03-30T03:29:19.600Z,16.60
2019-03-30T03:33:25.251Z,18.67
2019-03-30T03:37:44.742Z,18.33
2019-03-30T03:41:57.406Z,20.43
2019-03-30T03:46:14.430Z,19.77
2019-03-30T03:50:57.773Z,18.57
2019-03-30T04:00:20.620Z,17.10
2019-03-30T04:13:54.148Z,16.07
2019-03-30T04:17:59.872Z,21.57
2019-03-30T04:22:05.715Z,19.60
2019-03-30T04:26:11.506Z,21.27
2019-03-30T04:30:17.217Z,20.27
2019-03-30T04:34:22.928Z,19.57
2019-03-30T04:38:28.773Z,18.53
2019-03-30T04:42:34.459Z,21.80
2019-03-30T04:46:40.295Z,16.17
2019-03-30T04:50:45.975Z,18.35
2019-03-30T04:54:51.718Z,17.60
2019-03-30T04:58:57.506Z,19.37
2019-03-30T05:03:03.260Z,20.23
2019-03-30T05:07:09.036Z,19.53
2019-03-30T05:11:14.891Z,18.13
2019-03-30T05:15:20.566Z,19.60
2019-03-30T05:19:26.620Z,19.77
2019-03-30T05:23:32.288Z,20.23
2019-03-30T05:27:38.031Z,20.83
2019-03-30T05:31:43.770Z,19.10
2019-03-30T05:35:49.458Z,21.73
2019-03-30T05:39:55.323Z,19.83
2019-03-30T05:44:01.015Z,20.67
2019-03-30T05:48:06.754Z,19.63
2019-03-30T05:52:25.928Z,23.70
2019-03-30T05:56:25.632Z,23.37
2019-03-30T06:00:31.360Z,21.00
2019-03-30T06:04:37.226Z,18.53
2019-03-30T06:08:42.964Z,17.67
2019-03-30T06:12:48.664Z,21.60
2019-03-30T06:16:54.689Z,26.00
2019-03-30T06:21:00.350Z,20.60
2019-03-30T06:25:06.086Z,17.40
2019-03-30T06:33:36.386Z,16.67
2019-03-30T06:37:53.681Z,17.50
2019-03-30T06:41:59.384Z,16.13
2019-03-30T06:46:05.120Z,17.97
2019-03-30T06:50:11.266Z,18.17
2019-03-30T06:54:17.231Z,20.87
2019-03-30T06:58:23.023Z,19.23
2019-03-30T07:07:05.988Z,18.57
2019-03-30T07:11:50.857Z,18.70
2019-03-30T07:20:33.954Z,19.97
2019-03-30T07:24:39.712Z,18.77
2019-03-30T07:28:47.156Z,17.13
2019-03-30T07:32:57.929Z,16.97
2019-03-30T07:37:03.718Z,19.63
2019-03-30T07:41:09.354Z,15.97
2019-03-30T07:45:26.500Z,19.37
2019-03-30T07:49:53.714Z,19.37
2019-03-30T07:53:59.465Z,16.77
2019-03-30T07:58:24.011Z,16.03
2019-03-30T08:02:29.762Z,19.40
2019-03-30T08:06:35.491Z,17.80
2019-03-30T08:10:42.548Z,16.00
2019-03-30T08:14:48.242Z,17.77
2019-03-30T08:18:54.137Z,17.93
2019-03-30T08:22:59.958Z,16.90
2019-03-30T08:27:05.826Z,18.63
2019-03-30T08:31:11.887Z,18.60
2019-03-30T08:35:20.250Z,19.10
2019-03-30T08:39:26.360Z,19.03
2019-03-30T08:43:32.263Z,18.93
2019-03-30T08:47:40.371Z,18.27
2019-03-30T08:51:46.595Z,18.53
2019-03-30T08:55:52.597Z,18.70
2019-03-30T08:59:58.444Z,18.23
2019-03-30T09:04:04.433Z,18.90
2019-03-30T09:08:10.493Z,19.00
2019-03-30T09:12:16.299Z,18.05
2019-03-30T09:16:34.722Z,20.57
2019-03-30T09:20:40.525Z,18.03
2019-03-30T09:24:47.943Z,14.97
2019-03-30T09:28:54.066Z,15.63
2019-03-30T09:37:32.257Z,16.25
2019-03-30T09:41:38.161Z,17.32
2019-03-30T09:45:44.140Z,14.93
2019-03-30T09:49:50.284Z,14.87
2019-03-30T09:53:56.250Z,13.22
2019-03-30T09:58:02.648Z,15.08
2019-03-30T10:02:08.546Z,16.15
2019-03-30T10:06:14.409Z,16.85
2019-03-30T10:10:20.110Z,14.28
2019-03-30T10:14:25.805Z,14.18
2019-03-30T10:18:31.540Z,18.67
2019-03-30T10:22:37.531Z,14.85
2019-03-30T10:26:43.228Z,13.25
2019-03-30T10:30:48.968Z,16.60
2019-03-30T10:34:54.694Z,12.80
2019-03-30T10:39:00.339Z,14.00
2019-03-30T10:43:07.672Z,12.10
2019-03-30T10:47:13.523Z,14.70
2019-03-30T10:51:19.514Z,12.95
2019-03-30T10:55:25.456Z,15.00
2019-03-30T10:59:31.267Z,13.70
2019-03-30T11:03:37.028Z,10.58
2019-03-30T11:07:42.776Z,12.58
2019-03-30T11:16:20.221Z,12.10
2019-03-30T11:20:27.692Z,12.85
2019-03-30T11:24:33.917Z,13.40
2019-03-30T11:28:59.217Z,13.72
2019-03-30T11:33:06.078Z,13.38
2019-03-30T11:37:12.527Z,12.88
2019-03-30T11:41:18.334Z,16.12
2019-03-30T11:45:24.265Z,12.95
2019-03-30T11:49:31.522Z,16.10
2019-03-30T11:53:38.578Z,13.00
2019-03-30T11:57:48.622Z,15.70
2019-03-30T12:01:54.406Z,13.83
2019-03-30T12:06:00.138Z,14.30
2019-03-30T12:10:07.394Z,16.87
2019-03-30T12:14:13.121Z,19.55
2019-03-30T12:18:19.493Z,16.05
2019-03-30T12:27:32.326Z,12.82
2019-03-30T12:31:38.136Z,14.80
2019-03-30T12:35:43.916Z,14.33
2019-03-30T12:39:49.780Z,14.87
2019-03-30T12:43:55.590Z,15.88
2019-03-30T12:48:04.655Z,18.60
2019-03-30T12:52:29.342Z,16.15
2019-03-30T12:56:35.086Z,17.02
2019-03-30T13:00:40.875Z,16.62
2019-03-30T13:04:46.594Z,19.10
2019-03-30T13:08:52.290Z,14.55
2019-03-30T13:12:58.020Z,15.08
2019-03-30T13:17:03.776Z,16.23
2019-03-30T13:21:09.546Z,18.35
2019-03-30T13:25:15.325Z,14.25
2019-03-30T13:29:21.138Z,16.70
2019-03-30T13:38:20.652Z,14.97
2019-03-30T13:42:30.951Z,14.20
2019-03-30T13:46:36.635Z,15.70
2019-03-30T13:50:44.112Z,13.58
2019-03-30T13:54:49.954Z,15.72
2019-03-30T13:58:57.105Z,16.27
2019-03-30T14:03:03.007Z,14.07
2019-03-30T14:07:09.001Z,13.10
2019-03-30T14:11:14.688Z,13.55
2019-03-30T14:15:19.059Z,14.87
2019-03-30T14:19:24.714Z,11.80
2019-03-30T14:23:30.723Z,12.55
2019-03-30T14:27:36.440Z,11.63
2019-03-30T14:31:42.164Z,12.78
2019-03-30T14:35:48.020Z,13.50
2019-03-30T14:39:53.729Z,13.28
2019-03-30T14:44:18.675Z,11.78
2019-03-30T14:48:24.402Z,13.30
2019-03-30T14:52:30.095Z,11.78
2019-03-30T14:56:45.359Z,11.10
2019-03-30T15:01:03.317Z,12.03
2019-03-30T15:05:54.408Z,14.05
2019-03-30T15:10:00.407Z,12.10
2019-03-30T15:14:06.341Z,12.07
2019-03-30T15:18:12.103Z,11.30
2019-03-30T15:22:18.166Z,11.40
2019-03-30T15:26:23.876Z,13.88
2019-03-30T15:30:29.655Z,13.08
2019-03-30T15:34:35.458Z,13.05
2019-03-30T15:38:41.165Z,14.10
2019-03-30T15:42:46.938Z,15.18
2019-03-30T15:46:52.652Z,11.18
2019-03-30T15:55:16.798Z,14.03
2019-03-30T15:59:22.483Z,14.70
2019-03-30T16:03:28.205Z,12.98
2019-03-30T16:07:33.904Z,12.10
2019-03-30T16:11:40.070Z,15.70
2019-03-30T16:15:45.781Z,13.27
2019-03-30T16:19:54.310Z,14.53
2019-03-30T16:24:00.027Z,15.08
2019-03-30T16:28:05.698Z,13.60
2019-03-30T16:32:11.370Z,11.83
2019-03-30T16:36:17.091Z,14.28
2019-03-30T16:40:22.860Z,11.57
2019-03-30T16:44:28.529Z,14.30
2019-03-30T16:48:34.240Z,15.68
2019-03-30T16:52:41.107Z,17.55
2019-03-30T16:56:53.563Z,12.88
2019-03-30T17:00:59.369Z,16.10
2019-03-30T17:05:05.662Z,15.05
2019-03-30T17:09:12.948Z,15.75
2019-03-30T17:13:18.805Z,16.40
2019-03-30T17:17:24.578Z,22.07
2019-03-30T17:21:30.313Z,13.68
2019-03-30T17:25:36.058Z,16.82
2019-03-30T17:29:42.168Z,16.35
2019-03-30T17:33:48.329Z,17.98
2019-03-30T17:37:54.138Z,16.57
2019-03-30T17:42:00.002Z,16.60
2019-03-30T17:46:05.835Z,15.78
2019-03-30T17:50:32.242Z,13.75
2019-03-30T17:54:39.882Z,14.98
2019-03-30T17:58:55.061Z,14.73
2019-03-30T18:03:01.145Z,13.72
2019-03-30T18:07:13.783Z,14.07
2019-03-30T18:11:25.737Z,14.18
2019-03-30T18:15:34.501Z,15.63
2019-03-30T18:24:13.047Z,20.90
2019-03-30T18:28:26.960Z,16.82
2019-03-30T18:32:45.526Z,15.58
2019-03-30T18:37:02.465Z,13.70
2019-03-30T18:41:08.236Z,13.58
2019-03-30T18:49:51.968Z,13.98
2019-03-30T18:54:23.786Z,12.88
2019-03-30T18:58:40.938Z,12.58
2019-03-30T19:02:55.941Z,13.70
2019-03-30T19:07:01.722Z,15.30
2019-03-30T19:11:07.498Z,14.60
2019-03-30T19:15:13.160Z,13.73
2019-03-30T19:19:18.782Z,14.73
2019-03-30T19:23:24.439Z,16.45
2019-03-30T19:27:30.883Z,14.27
2019-03-30T19:31:36.713Z,14.30
2019-03-30T19:35:42.399Z,15.58
2019-03-30T19:39:48.099Z,17.90
2019-03-30T19:43:53.888Z,17.63
2019-03-30T19:47:59.690Z,16.13
2019-03-30T19:52:05.971Z,14.93
2019-03-30T19:56:12.040Z,14.90
2019-03-30T20:05:19.328Z,18.17
2019-03-30T20:09:25.018Z,15.77
2019-03-30T20:13:30.739Z,14.40
2019-03-30T20:17:36.520Z,18.53
2019-03-30T20:26:00.431Z,17.00
2019-03-30T20:30:18.715Z,18.10
2019-03-30T20:34:24.436Z,15.97
2019-03-30T20:38:30.937Z,16.33
2019-03-30T20:42:36.704Z,14.03
2019-03-30T20:46:43.798Z,13.93
2019-03-30T20:50:55.292Z,16.43
2019-03-30T20:55:01.044Z,15.87
2019-03-30T20:59:06.788Z,16.63
2019-03-30T21:03:12.928Z,15.13
2019-03-30T21:07:20.843Z,19.97
2019-03-30T21:11:26.559Z,43.30
2019-03-30T21:15:32.290Z,31.80
2019-03-30T21:19:38.123Z,28.33
2019-03-30T21:23:43.832Z,32.90
2019-03-30T21:27:49.540Z,28.07
2019-03-30T21:31:55.210Z,24.90
2019-03-30T21:36:00.981Z,27.63
2019-03-30T21:40:07.108Z,35.20
2019-03-30T21:44:22.059Z,28.27
2019-03-30T21:48:39.704Z,25.90
2019-03-30T21:52:45.515Z,25.63
2019-03-30T21:56:51.296Z,25.27
2019-03-30T22:00:59.848Z,24.77
2019-03-30T22:05:10.290Z,28.67
2019-03-30T22:09:16.067Z,25.60
2019-03-30T22:13:22.086Z,28.70
2019-03-30T22:17:28.131Z,27.43
2019-03-30T22:21:34.128Z,25.90
2019-03-30T22:25:39.896Z,29.23
2019-03-30T22:29:45.578Z,27.93
2019-03-30T22:33:51.279Z,31.27
2019-03-30T22:37:56.982Z,33.03
2019-03-30T22:42:02.639Z,124.40
2019-03-30T22:46:09.488Z,53.60
2019-03-30T22:50:15.207Z,30.27
2019-03-30T22:54:20.963Z,31.43
2019-03-30T22:58:26.667Z,40.47
2019-03-30T23:02:32.676Z,52.23
2019-03-30T23:06:38.362Z,42.40
2019-03-30T23:10:44.147Z,41.27
2019-03-30T23:14:49.847Z,37.37
2019-03-30T23:18:55.636Z,37.47
2019-03-30T23:23:01.391Z,34.93
2019-03-30T23:27:07.086Z,36.03
2019-03-30T23:31:12.928Z,33.47
2019-03-30T23:35:18.788Z,37.23
2019-03-30T23:39:24.646Z,32.87
2019-03-30T23:43:30.414Z,30.43
2019-03-30T23:47:36.079Z,33.00
2019-03-30T23:51:41.873Z,37.40
2019-03-30T23:55:47.686Z,35.03
2019-03-30T23:59:53.422Z,39.03
